Pittsburgh, PA

9:48 AM EST on November 22, 2014 (GMT -0500)
Lower Gates Manor | Change Station
CLOSE
Current Station
Personal Weather Station
Location: Munhall, PA
Elevation: 1050 ft
Nearby Weather Stations
Active Advisory: Freezing Rain Advisory

Elev 1050 ft 40.39 °N, 79.92 °W | Updated 4 minutes ago

Overcast
Overcast
31.8 °F
Feels Like 32 °F
N
0.0
Wind Variable Wind from NNE

Today
High -- | Low -- °F
--% Chance of Precip.
Yesterday
High -- | Low -- °F
Precip. -- in
7:13 AM 4:57 PM
New Moon, 0% visible
Pressure 30.37 in
Visibility 10.0 miles
Clouds Few 4500 ft
Overcast 7500 ft
Windchill 32 °F
Dew Point 15 °F
Humidity 50%
Rainfall 0.00 in
Snow Depth Not available.
UV 0 out of 12
Pollen .10 out of 12
Air Quality Not available.
Flu Activity Not available.
METAR KAGC 221353Z 19009KT 10SM FEW045 OVC075 M02/M15 A3031 RMK AO2 SLP284 T10221150

More Conditions Fewer Conditions

Pressure 30.37 in
Visibility 10.0 miles
Clouds Few 4500 ft
Overcast 7500 ft
Windchill 32 °F
Dew Point 15 °F
Humidity 50%
Rainfall 0.00 in
Snow Depth Not available.
UV 0 out of 12
Pollen .10 out of 12
Air Quality Not available.
Flu Activity Not available.
METAR KAGC 221353Z 19009KT 10SM FEW045 OVC075 M02/M15 A3031 RMK AO2 SLP284 T10221150

More Conditions Fewer Conditions

10-Day Weather Forecast

Almanac

Astronomy

Nov. 22, 2014 Rise Set
Actual Time
Civil Twilight
Nautical Twilight
Astronomical Twilight
Moon
Length of Visible Light
Length of Day
Tomorrow will be .
, % of the Moon is Illuminated

Today's Extremes

State Highs State Lows

Community

WunderPhotos

Upload Photos

1,772,823 photos uploaded!

WunderBlogs® & News

Nearby

Air Quality

  Air Quality AQ Index Pollutant
Not available.

Snow Depth

Station Depth Elevation

Earthquake Activity

City Distance Mag. Time & Date
Minimum magnitude displayed is 2.5.

Coastal Water Temperatures

Place Temperature

Nearby Weather Stations